^^
Saratoga-Weather Station Historical Data
Daily Summary for July 15, 2020 Units:  English    Metric   Both
Daily Weekly Monthly Yearly Custom
  High: Low: Average:
Temperature: 62.1 °F 45.3 °F 52.5 °F
Dew Point: 54.5 °F 44.6 °F 49.5 °F
Humidity: 98% 70% 90%
Wind Speed: 17.9mph 0mph 1.9mph
Wind Gust: 18mph - -
Wind- - SSE
Pressure: 30 in 29.7 in -
Precipitation: 0.28 in    
Historical Graphs
 
 
Tabular Data for July 15, 2020
Time Temperature Dew Point Pressure Wind Wind Speed Wind Gust Humidity Rainfall Rate (Hourly) solar
00:01 46.9 °F 46.2 °F 30 in Calm     97% 0 in 0 W/m2
00:06 46.9 °F 46.2 °F 30 in Calm     97% 0 in 0 W/m2
00:11 46.8 °F 46 °F 30 in Calm     97% 0 in 0 W/m2
00:16 46.8 °F 46 °F 30 in Calm     97% 0 in 0 W/m2
00:21 46.8 °F 46 °F 30 in Calm     97% 0 in 0 W/m2
00:26 46.6 °F 45.9 °F 30 in Calm     97% 0 in 0 W/m2
00:31 46.6 °F 45.9 °F 30 in Calm     97% 0 in 0 W/m2
00:36 46.6 °F 45.9 °F 30 in Calm     97% 0 in 0 W/m2
00:41 46.4 °F 45.7 °F 30 in Calm     97% 0 in 0 W/m2
00:46 46.4 °F 45.7 °F 30 in Calm     97% 0 in 0 W/m2
00:51 46.4 °F 45.7 °F 30 in Calm     97% 0 in 0 W/m2
00:56 46.4 °F 45.7 °F 30 in Calm     97% 0 in 0 W/m2
01:01 46.6 °F 45.9 °F 30 in Calm     97% 0 in 0 W/m2
01:06 46.8 °F 46 °F 30 in Calm     97% 0 in 0 W/m2
01:11 46.9 °F 46.2 °F 30 in Calm     97% 0 in 0 W/m2
01:16 46.8 °F 46 °F 30 in Calm     97% 0 in 0 W/m2
01:21 46.8 °F 46 °F 30 in Calm     97% 0 in 0 W/m2
01:26 46.6 °F 45.9 °F 30 in Calm     97% 0 in 0 W/m2
01:32 46.6 °F 45.9 °F 30 in Calm     97% 0 in 0 W/m2
01:37 46.6 °F 45.9 °F 30 in Calm     97% 0 in 0 W/m2
01:42 46.4 °F 45.7 °F 30 in Calm     97% 0 in 0 W/m2
01:47 46.8 °F 46 °F 30 in Calm     97% 0 in 0 W/m2
01:52 46.9 °F 46.2 °F 30 in Calm     97% 0 in 0 W/m2
01:57 46.9 °F 46.2 °F 30 in Calm     97% 0 in 0 W/m2
02:02 46.9 °F 46.2 °F 30 in Calm     97% 0 in 0 W/m2
02:07 46.9 °F 46.2 °F 30 in Calm     97% 0 in 0 W/m2
02:12 46.9 °F 46.2 °F 30 in Calm     97% 0 in 0 W/m2
02:17 46.9 °F 46.2 °F 30 in Calm     97% 0 in 0 W/m2
02:22 46.8 °F 46 °F 30 in Calm     97% 0 in 0 W/m2
02:27 46.8 °F 46 °F 30 in Calm     97% 0 in 0 W/m2
02:32 46.6 °F 45.9 °F 30 in Calm     97% 0 in 0 W/m2
02:37 46.6 °F 45.9 °F 30 in Calm     97% 0 in 0 W/m2
02:42 46.6 °F 45.9 °F 29.9 in Calm     97% 0 in 0 W/m2
02:47 46.6 °F 45.9 °F 29.9 in Calm     97% 0 in 0 W/m2
02:52 46.4 °F 45.7 °F 29.9 in Calm     97% 0 in 0 W/m2
02:57 46.2 °F 45.5 °F 29.9 in Calm     97% 0 in 0 W/m2
03:02 46 °F 45.3 °F 29.9 in Calm     97% 0 in 0 W/m2
03:07 46 °F 45.3 °F 30 in Calm     97% 0 in 0 W/m2
03:12 46 °F 45.3 °F 29.9 in Calm     97% 0 in 0 W/m2
03:17 45.9 °F 45.1 °F 29.9 in Calm     97% 0 in 0 W/m2
03:22 45.9 °F 45.1 °F 29.9 in Calm     97% 0 in 0 W/m2
03:27 46 °F 45.3 °F 29.9 in Calm     97% 0 in 0 W/m2
03:32 46 °F 45.3 °F 29.9 in Calm     97% 0 in 0 W/m2
03:37 46 °F 45.3 °F 29.9 in Calm     97% 0 in 0 W/m2
03:42 46.2 °F 45.5 °F 29.9 in Calm     97% 0 in 0 W/m2
03:47 46.2 °F 45.5 °F 29.9 in Calm     97% 0 in 0 W/m2
03:52 46.2 °F 45.5 °F 29.9 in Calm     97% 0 in 0 W/m2
03:57 46 °F 45.3 °F 29.9 in Calm     97% 0 in 0 W/m2
04:02 46 °F 45.3 °F 29.9 in Calm     97% 0 in 0 W/m2
04:07 46 °F 45.3 °F 29.9 in Calm     97% 0 in 0 W/m2
04:12 45.9 °F 45.1 °F 29.9 in Calm     97% 0 in 0 W/m2
04:17 45.7 °F 45 °F 29.9 in Calm     97% 0 in 0 W/m2
04:22 45.7 °F 45 °F 29.9 in Calm     97% 0.01 in 0 W/m2
04:27 45.9 °F 45.1 °F 29.9 in ESE 2 mph 3 mph 97% 0.01 in 0 W/m2
04:32 46.2 °F 45.5 °F 29.9 in Calm     97% 0.01 in 0 W/m2
04:37 46.2 °F 45.5 °F 29.9 in Calm   1 mph 97% 0.01 in 0 W/m2
04:42 46.2 °F 45.5 °F 29.9 in Calm     97% 0.01 in 0 W/m2
04:47 46 °F 45.3 °F 29.9 in Calm     97% 0.01 in 0 W/m2
04:52 45.9 °F 45.1 °F 29.9 in Calm     97% 0.01 in 0 W/m2
04:57 45.7 °F 45 °F 29.9 in SW 2 mph 3 mph 97% 0.01 in 0 W/m2
05:02 45.7 °F 45 °F 29.9 in Calm     97% 0.01 in 0 W/m2
05:07 45.5 °F 44.8 °F 29.9 in Calm   3 mph 97% 0.01 in 0 W/m2
05:12 45.5 °F 44.8 °F 29.9 in Calm     97% 0.01 in 0 W/m2
05:17 45.3 °F 44.6 °F 29.9 in Calm     97% 0 in 0 W/m2
05:22 45.3 °F 44.6 °F 29.9 in Calm     97% 0 in 0 W/m2
05:27 45.5 °F 44.8 °F 29.9 in Calm     97% 0 in 0 W/m2
05:32 45.7 °F 45 °F 29.9 in Calm     97% 0 in 0 W/m2
05:37 45.7 °F 45 °F 29.9 in Calm     97% 0 in 0 W/m2
05:42 45.7 °F 45 °F 29.9 in Calm     97% 0 in 0 W/m2
05:47 45.7 °F 45 °F 29.9 in Calm     97% 0 in 0 W/m2
05:52 45.7 °F 45 °F 29.9 in Calm     97% 0 in 0 W/m2
05:57 45.7 °F 45 °F 29.9 in Calm     97% 0 in 0 W/m2
06:02 45.5 °F 44.8 °F 29.9 in Calm     97% 0 in 0 W/m2
06:07 45.3 °F 44.6 °F 29.9 in Calm     97% 0 in 0 W/m2
06:13 45.3 °F 44.6 °F 29.9 in Calm     97% 0 in 0 W/m2
06:18 45.3 °F 44.6 °F 29.9 in Calm     97% 0 in 0 W/m2
06:23 45.3 °F 44.6 °F 29.9 in Calm     97% 0 in 0 W/m2
06:28 45.7 °F 45 °F 29.9 in Calm     97% 0 in 0 W/m2
06:33 45.7 °F 45 °F 29.9 in Calm     97% 0 in 0 W/m2
06:38 45.9 °F 45.1 °F 29.9 in Calm     97% 0 in 0 W/m2
06:43 45.9 °F 45.1 °F 29.9 in Calm     97% 0 in 0 W/m2
06:48 46 °F 45.3 °F 29.9 in Calm     97% 0 in 0 W/m2
06:53 46 °F 45.3 °F 29.9 in Calm     97% 0 in 0 W/m2
06:58 46 °F 45.3 °F 29.9 in Calm     97% 0 in 0 W/m2
07:03 46 °F 45.3 °F 29.9 in Calm     97% 0 in 0 W/m2
07:08 46 °F 45.3 °F 29.9 in Calm     97% 0 in 0 W/m2
07:13 46 °F 45.3 °F 29.9 in Calm     97% 0 in 0 W/m2
07:18 46.2 °F 45.7 °F 29.9 in Calm     98% 0 in 0 W/m2
07:23 46.4 °F 45.9 °F 29.9 in Calm     98% 0 in 0 W/m2
07:28 46.6 °F 46 °F 29.9 in Calm     98% 0 in 0 W/m2
07:33 46.6 °F 46 °F 29.9 in Calm     98% 0 in 0 W/m2
07:38 46.8 °F 46.2 °F 29.9 in Calm     98% 0 in 0 W/m2
07:43 46.8 °F 46.2 °F 29.9 in WSW 2 mph 2 mph 98% 0 in 0 W/m2
07:48 46.8 °F 46.2 °F 29.9 in WSW 0.9 mph 1 mph 98% 0 in 0 W/m2
07:53 46.9 °F 46.4 °F 29.9 in Calm     98% 0 in 0 W/m2
07:58 46.9 °F 46.4 °F 29.9 in Calm     98% 0 in 5 W/m2
08:03 46.9 °F 46.4 °F 29.9 in Calm     98% 0 in 7 W/m2
08:08 46.9 °F 46.4 °F 29.9 in WSW 0.9 mph 2 mph 98% 0 in 7 W/m2
08:13 46.9 °F 46.4 °F 29.9 in Calm     98% 0 in 9 W/m2
08:18 46.8 °F 46.2 °F 29.9 in Calm   2 mph 98% 0 in 11 W/m2
08:23 46.8 °F 46 °F 29.9 in Calm     97% 0 in 12 W/m2
08:28 46.8 °F 46 °F 29.9 in Calm   1 mph 97% 0 in 14 W/m2
08:33 46.8 °F 46.2 °F 29.9 in Calm   1 mph 98% 0 in 18 W/m2
08:38 46.9 °F 46.4 °F 29.9 in Calm     98% 0 in 23 W/m2
08:43 46.9 °F 46.4 °F 29.9 in Calm     98% 0 in 28 W/m2
08:48 46.9 °F 46.4 °F 29.9 in Calm   1 mph 98% 0 in 33 W/m2
08:53 47.1 °F 46.6 °F 29.9 in WSW 0.9 mph 1 mph 98% 0 in 32 W/m2
08:58 47.5 °F 46.9 °F 29.9 in Calm     98% 0 in 30 W/m2
09:03 47.7 °F 47.1 °F 29.9 in Calm   1 mph 98% 0 in 30 W/m2
09:08 47.5 °F 46.9 °F 29.9 in Calm   2 mph 98% 0 in 37 W/m2
09:13 47.7 °F 47.1 °F 29.9 in Calm     98% 0 in 47 W/m2
09:18 48 °F 47.5 °F 29.9 in NNE 0.9 mph 3 mph 98% 0 in 44 W/m2
09:23 48.7 °F 48.2 °F 29.9 in Calm   2 mph 98% 0 in 33 W/m2
09:28 48.7 °F 48.2 °F 29.9 in Calm   2 mph 98% 0 in 30 W/m2
09:33 49.1 °F 48.6 °F 29.9 in NE 6 mph 7 mph 98% 0 in 35 W/m2
09:38 50 °F 49.5 °F 29.9 in East 4 mph 11 mph 98% 0 in 32 W/m2
09:43 50.5 °F 50 °F 29.9 in NE 2 mph 6 mph 98% 0 in 32 W/m2
09:48 50.7 °F 50.2 °F 29.9 in NE 0.9 mph 11 mph 98% 0 in 32 W/m2
09:53 50.7 °F 50.2 °F 29.9 in East 0.9 mph 6 mph 98% 0 in 35 W/m2
09:58 51.3 °F 50.7 °F 29.9 in ENE 2 mph 4 mph 98% 0 in 35 W/m2
10:03 51.4 °F 50.9 °F 29.9 in Calm   2 mph 98% 0 in 40 W/m2
10:08 51.6 °F 51.1 °F 29.9 in ENE 2 mph 3 mph 98% 0 in 47 W/m2
10:13 52 °F 51.4 °F 29.9 in NNE 0.9 mph 3 mph 98% 0 in 58 W/m2
10:18 52.2 °F 51.6 °F 29.9 in NE 0.9 mph 3 mph 98% 0 in 67 W/m2
10:23 52.3 °F 51.8 °F 29.9 in WNW 2 mph 3 mph 98% 0 in 63 W/m2
10:28 52.5 °F 51.6 °F 29.9 in Calm   1 mph 97% 0 in 62 W/m2
10:33 52.9 °F 52 °F 29.9 in Calm   3 mph 97% 0 in 58 W/m2
10:38 52.9 °F 52 °F 29.9 in NNW 0.9 mph 3 mph 97% 0 in 62 W/m2
10:43 52.9 °F 51.8 °F 29.9 in East 0.9 mph 2 mph 96% 0 in 76 W/m2
10:48 53.1 °F 52 °F 29.9 in Calm   3 mph 96% 0 in 120 W/m2
10:53 53.8 °F 52.7 °F 29.9 in ENE 2.9 mph 4 mph 96% 0 in 139 W/m2
10:58 54.3 °F 52.9 °F 29.9 in NE 0.9 mph 3 mph 95% 0 in 116 W/m2
11:03 55 °F 53.1 °F 29.9 in ESE 2 mph 3 mph 93% 0 in 116 W/m2
11:08 55.6 °F 53.2 °F 29.9 in East 2 mph 3 mph 92% 0 in 141 W/m2
11:13 55.8 °F 52.9 °F 29.8 in ENE 2 mph 4 mph 90% 0 in 105 W/m2
11:18 56.1 °F 52.9 °F 29.8 in ENE 2.9 mph 7 mph 89% 0 in 97 W/m2
11:23 56.5 °F 52.9 °F 29.8 in East 2.9 mph 3 mph 88% 0 in 91 W/m2
11:28 56.8 °F 53.1 °F 29.8 in NE 4 mph 8 mph 87% 0 in 95 W/m2
11:33 57 °F 52.9 °F 29.8 in WNW 2 mph 3 mph 86% 0 in 130 W/m2
11:38 57.4 °F 52.9 °F 29.8 in ESE 0.9 mph 10 mph 85% 0 in 142 W/m2
11:43 57.9 °F 53.1 °F 29.8 in ESE 4 mph 6 mph 84% 0 in 123 W/m2
11:48 58.3 °F 52.9 °F 29.8 in ENE 2 mph 5 mph 82% 0 in 120 W/m2
11:53 58.6 °F 52.9 °F 29.8 in NE 6 mph 9 mph 81% 0 in 125 W/m2
11:58 58.6 °F 52.5 °F 29.8 in SE 4.9 mph 11 mph 80% 0 in 153 W/m2
12:03 58.8 °F 52.7 °F 29.8 in East 2.9 mph 9 mph 80% 0 in 144 W/m2
12:08 58.8 °F 52.7 °F 29.8 in East 2.9 mph 11 mph 80% 0 in 121 W/m2
12:13 58.8 °F 52.7 °F 29.8 in ENE 8.9 mph 9 mph 80% 0 in 121 W/m2
12:18 59 °F 52.9 °F 29.8 in SE 2.9 mph 10 mph 80% 0 in 144 W/m2
12:23 59.2 °F 53.1 °F 29.8 in East 4.9 mph 11 mph 80% 0 in 183 W/m2
12:28 59.2 °F 53.1 °F 29.8 in East 6 mph 12 mph 80% 0 in 113 W/m2
12:33 59.4 °F 52.9 °F 29.8 in NE 4.9 mph 12 mph 79% 0 in 79 W/m2
12:38 59.5 °F 52.7 °F 29.8 in ENE 2 mph 10 mph 78% 0 in 86 W/m2
12:43 59.7 °F 52.9 °F 29.8 in ESE 2.9 mph 8 mph 78% 0 in 69 W/m2
12:48 59.9 °F 53.1 °F 29.8 in ENE 2 mph 10 mph 78% 0 in 95 W/m2
12:53 60.1 °F 52.9 °F 29.8 in SSE 0.9 mph 15 mph 77% 0 in 118 W/m2
12:58 60.1 °F 52.9 °F 29.8 in ENE 2 mph 14 mph 77% 0 in 130 W/m2
13:03 60.3 °F 53.1 °F 29.8 in ESE 2 mph 15 mph 77% 0 in 127 W/m2
13:08 60.4 °F 53.2 °F 29.8 in ESE 2 mph 6 mph 77% 0 in 132 W/m2
13:13 60.4 °F 53.2 °F 29.8 in East 0.9 mph 8 mph 77% 0 in 139 W/m2
13:18 60.6 °F 53.4 °F 29.8 in East 4 mph 7 mph 77% 0 in 137 W/m2
13:23 60.6 °F 53.1 °F 29.8 in East 2.9 mph 10 mph 76% 0 in 132 W/m2
13:28 60.6 °F 53.1 °F 29.7 in East 2.9 mph 10 mph 76% 0 in 130 W/m2
13:33 60.6 °F 53.1 °F 29.7 in ESE 6.9 mph 11 mph 76% 0 in 130 W/m2
13:38 60.6 °F 52.7 °F 29.7 in East 2.9 mph 8 mph 75% 0 in 141 W/m2
13:43 60.8 °F 53.2 °F 29.7 in East 2 mph 11 mph 76% 0 in 144 W/m2
13:48 61 °F 53.1 °F 29.7 in ESE 4 mph 7 mph 75% 0 in 128 W/m2
13:53 61 °F 53.1 °F 29.7 in East 6 mph 8 mph 75% 0 in 118 W/m2
13:58 61 °F 53.1 °F 29.7 in NE 4 mph 8 mph 75% 0 in 121 W/m2
14:03 61 °F 53.1 °F 29.7 in ENE 4 mph 12 mph 75% 0 in 113 W/m2
14:08 61 °F 53.1 °F 29.7 in East 4 mph 7 mph 75% 0 in 98 W/m2
14:14 61 °F 53.1 °F 29.7 in ENE 2.9 mph 12 mph 75% 0 in 98 W/m2
14:19 61 °F 53.1 °F 29.7 in NE 2 mph 7 mph 75% 0 in 90 W/m2
14:24 61 °F 53.4 °F 29.7 in ENE 0.9 mph 12 mph 76% 0 in 72 W/m2
14:29 61 °F 53.4 °F 29.7 in East 2 mph 8 mph 76% 0 in 65 W/m2
14:34 60.8 °F 53.2 °F 29.7 in NE 2 mph 5 mph 76% 0 in 60 W/m2
14:39 60.8 °F 53.6 °F 29.7 in SE 4.9 mph 5 mph 77% 0 in 54 W/m2
14:44 60.6 °F 53.1 °F 29.7 in East 2.9 mph 3 mph 76% 0 in 49 W/m2
14:49 60.6 °F 53.1 °F 29.7 in ENE 2 mph 4 mph 76% 0 in 40 W/m2
14:54 60.6 °F 53.1 °F 29.7 in Calm   1 mph 76% 0 in 35 W/m2
14:59 60.4 °F 53.2 °F 29.7 in North 0.9 mph 2 mph 77% 0 in 35 W/m2
15:04 60.3 °F 53.1 °F 29.7 in Calm   2 mph 77% 0 in 28 W/m2
15:09 60.1 °F 53.2 °F 29.7 in ENE 0.9 mph 6 mph 78% 0 in 37 W/m2
15:14 59.9 °F 52.7 °F 29.7 in ESE 0.9 mph 2 mph 77% 0 in 35 W/m2
15:19 60.1 °F 52.5 °F 29.7 in North 0.9 mph 4 mph 76% 0 in 32 W/m2
15:24 60.4 °F 52.5 °F 29.7 in East 2 mph 4 mph 75% 0 in 37 W/m2
15:29 60.8 °F 52.2 °F 29.7 in NNE 2.9 mph 3 mph 73% 0 in 30 W/m2
15:34 61.2 °F 52 °F 29.7 in ENE 4.9 mph 5 mph 72% 0 in 19 W/m2
15:39 61.5 °F 52 °F 29.7 in ENE 4 mph 6 mph 71% 0 in 18 W/m2
15:44 61.7 °F 51.8 °F 29.7 in NE 2.9 mph 8 mph 70% 0 in 12 W/m2
15:49 62.1 °F 52.2 °F 29.7 in NNE 4 mph 4 mph 70% 0 in 12 W/m2
15:54 62.1 °F 52.2 °F 29.7 in NNE 0.9 mph 5 mph 70% 0 in 11 W/m2
15:59 62.1 °F 52.2 °F 29.7 in WNW 2.9 mph 8 mph 70% 0 in 7 W/m2
16:04 61.9 °F 52.3 °F 29.7 in East 0.9 mph 4 mph 71% 0 in 7 W/m2
16:09 61.9 °F 52 °F 29.7 in North 2.9 mph 5 mph 70% 0 in 5 W/m2
16:14 61.9 °F 52.3 °F 29.7 in NW 2.9 mph 3 mph 71% 0 in 5 W/m2
16:19 62.1 °F 52.2 °F 29.7 in NNE 2 mph 3 mph 70% 0 in 0 W/m2
16:24 61.9 °F 52.3 °F 29.7 in NNE 2.9 mph 5 mph 71% 0 in 0 W/m2
16:29 61.9 °F 52.7 °F 29.7 in NNE 2 mph 4 mph 72% 0 in 0 W/m2
16:34 61.3 °F 53.1 °F 29.7 in NE 0.9 mph 7 mph 74% 0.01 in 0 W/m2
16:39 61 °F 53.4 °F 29.7 in NNW 2.9 mph 4 mph 76% 0.01 in 0 W/m2
16:44 60.3 °F 53.4 °F 29.7 in Calm   9 mph 78% 0.02 in 0 W/m2
16:49 59.5 °F 53.8 °F 29.7 in NE 2.9 mph 6 mph 81% 0.03 in 0 W/m2
16:54 59.2 °F 53.6 °F 29.7 in WSW 0.9 mph 9 mph 82% 0.04 in 0 W/m2
16:59 58.5 °F 53.6 °F 29.7 in NNE 4 mph 5 mph 84% 0.06 in 0 W/m2
17:04 58.1 °F 54 °F 29.7 in Calm   3 mph 86% 0.06 in 0 W/m2
17:09 57.7 °F 53.6 °F 29.7 in ENE 2.9 mph 4 mph 86% 0.06 in 0 W/m2
17:14 57.6 °F 53.8 °F 29.7 in NE 2 mph 3 mph 87% 0.07 in 0 W/m2
17:19 57.4 °F 53.8 °F 29.7 in ENE 2 mph 4 mph 88% 0.07 in 0 W/m2
17:24 57.2 °F 53.6 °F 29.7 in NE 2 mph 4 mph 88% 0.07 in 0 W/m2
17:29 57.2 °F 54 °F 29.7 in East 2.9 mph 3 mph 89% 0.07 in 0 W/m2
17:34 57 °F 53.8 °F 29.7 in ENE 2 mph 4 mph 89% 0.08 in 0 W/m2
17:39 57 °F 54.1 °F 29.7 in East 0.9 mph 10 mph 90% 0.09 in 0 W/m2
17:44 56.8 °F 54 °F 29.7 in ENE 4 mph 9 mph 90% 0.08 in 0 W/m2
17:49 56.8 °F 54 °F 29.7 in Calm   10 mph 90% 0.09 in 0 W/m2
17:54 56.8 °F 54.3 °F 29.7 in ENE 2 mph 8 mph 91% 0.08 in 0 W/m2
17:59 56.7 °F 54.1 °F 29.7 in East 6 mph 10 mph 91% 0.07 in 0 W/m2
18:04 56.7 °F 54.1 °F 29.7 in NE 2 mph 6 mph 91% 0.06 in 0 W/m2
18:09 56.7 °F 54.1 °F 29.7 in NNW 2 mph 5 mph 91% 0.08 in 0 W/m2
18:14 56.8 °F 54.3 °F 29.7 in East 2.9 mph 8 mph 91% 0.08 in 0 W/m2
18:19 56.8 °F 54.3 °F 29.7 in NW 4 mph 5 mph 91% 0.09 in 0 W/m2
18:24 56.8 °F 54.3 °F 29.7 in WSW 0.9 mph 8 mph 91% 0.09 in 0 W/m2
18:29 57 °F 54.5 °F 29.7 in NNE 0.9 mph 7 mph 91% 0.08 in 0 W/m2
18:34 57 °F 54.5 °F 29.7 in NW 0.9 mph 8 mph 91% 0.07 in 0 W/m2
18:39 57 °F 54.1 °F 29.7 in SE 2.9 mph 10 mph 90% 0.06 in 0 W/m2
18:44 57 °F 54.1 °F 29.7 in NNW 0.9 mph 5 mph 90% 0.06 in 0 W/m2
18:49 57 °F 54.1 °F 29.7 in West 6.9 mph 11 mph 90% 0.04 in 0 W/m2
18:54 57.2 °F 54.3 °F 29.7 in NE 2 mph 5 mph 90% 0.04 in 0 W/m2
18:59 57.2 °F 54 °F 29.7 in NE 4 mph 5 mph 89% 0.03 in 0 W/m2
19:04 57.2 °F 54.3 °F 29.7 in ENE 8.9 mph 10 mph 90% 0.03 in 0 W/m2
19:09 57.2 °F 54 °F 29.7 in NW 2 mph 12 mph 89% 0.02 in 0 W/m2
19:14 57.4 °F 54.1 °F 29.7 in NE 2 mph 10 mph 89% 0.01 in 0 W/m2
19:19 57.4 °F 54.1 °F 29.7 in NNE 2 mph 4 mph 89% 0 in 0 W/m2
19:24 57.4 °F 53.8 °F 29.7 in West 6.9 mph 11 mph 88% 0.01 in 0 W/m2
19:29 57 °F 53.8 °F 29.7 in WSW 4 mph 11 mph 89% 0.05 in 0 W/m2
19:34 55.9 °F 52.7 °F 29.7 in West 4 mph 13 mph 89% 0.1 in 0 W/m2
19:39 55.4 °F 52.2 °F 29.7 in NW 4 mph 11 mph 89% 0.11 in 0 W/m2
19:44 54.9 °F 51.6 °F 29.7 in NE 2.9 mph 11 mph 89% 0.11 in 0 W/m2
19:49 54.5 °F 51.3 °F 29.7 in West 2.9 mph 16 mph 89% 0.12 in 0 W/m2
19:54 54.1 °F 50.7 °F 29.7 in West 8.1 mph 18 mph 88% 0.12 in 0 W/m2
19:59 54.1 °F 50.4 °F 29.7 in WNW 6.9 mph 12 mph 87% 0.12 in 0 W/m2
20:04 54 °F 50.2 °F 29.7 in NW 8.1 mph 18 mph 87% 0.12 in 0 W/m2
20:09 53.8 °F 50 °F 29.7 in West 2 mph 6 mph 87% 0.12 in 0 W/m2
20:15 53.6 °F 50.2 °F 29.7 in WNW 4 mph 9 mph 88% 0.12 in 0 W/m2
20:20 53.4 °F 50 °F 29.7 in North 0.9 mph 3 mph 88% 0.12 in 0 W/m2
20:25 53.4 °F 50.2 °F 29.7 in NW 2.9 mph 7 mph 89% 0.11 in 0 W/m2
20:30 53.4 °F 50.5 °F 29.7 in SE 2 mph 2 mph 90% 0.07 in 0 W/m2
20:35 53.2 °F 50.4 °F 29.7 in West 2 mph 4 mph 90% 0.02 in 0 W/m2
20:40 53.2 °F 50.4 °F 29.7 in WNW 0.9 mph 3 mph 90% 0.01 in 0 W/m2
20:45 53.2 °F 50.4 °F 29.7 in West 2.9 mph 4 mph 90% 0.01 in 0 W/m2
20:50 53.2 °F 50.7 °F 29.7 in WNW 0.9 mph 4 mph 91% 0 in 0 W/m2
20:55 53.2 °F 50.7 °F 29.7 in NNW 2.9 mph 6 mph 91% 0 in 0 W/m2
21:00 53.2 °F 50.7 °F 29.7 in Calm   2 mph 91% 0 in 0 W/m2
21:05 53.2 °F 50.7 °F 29.7 in Calm   3 mph 91% 0 in 0 W/m2
21:10 53.2 °F 50.7 °F 29.7 in WSW 6 mph 6 mph 91% 0 in 0 W/m2
21:15 53.2 °F 50.7 °F 29.7 in WNW 0.9 mph 6 mph 91% 0 in 0 W/m2
21:20 53.2 °F 50.7 °F 29.7 in West 0.9 mph 2 mph 91% 0 in 0 W/m2
21:25 53.2 °F 50.7 °F 29.7 in NNW 2 mph 6 mph 91% 0 in 0 W/m2
21:30 53.2 °F 50.7 °F 29.7 in WNW 2 mph 3 mph 91% 0 in 0 W/m2
21:35 53.2 °F 50.7 °F 29.7 in WNW 2.9 mph 5 mph 91% 0 in 0 W/m2
21:40 53.2 °F 50.7 °F 29.7 in NW 0.9 mph 4 mph 91% 0 in 0 W/m2
21:45 53.4 °F 50.9 °F 29.7 in Calm   4 mph 91% 0 in 0 W/m2
21:50 53.4 °F 50.9 °F 29.7 in Calm   3 mph 91% 0 in 0 W/m2
21:55 53.4 °F 50.9 °F 29.7 in NW 0.9 mph 1 mph 91% 0 in 0 W/m2
22:00 53.4 °F 50.9 °F 29.7 in North 2.9 mph 5 mph 91% 0 in 0 W/m2
22:05 53.4 °F 50.9 °F 29.7 in West 0.9 mph 3 mph 91% 0 in 0 W/m2
22:10 53.4 °F 50.5 °F 29.7 in NW 4 mph 5 mph 90% 0 in 0 W/m2
22:15 53.2 °F 50.4 °F 29.7 in NW 4 mph 6 mph 90% 0 in 0 W/m2
22:20 53.2 °F 49.8 °F 29.8 in West 6 mph 13 mph 88% 0 in 0 W/m2
22:25 53.2 °F 49.5 °F 29.8 in West 6.9 mph 12 mph 87% 0 in 0 W/m2
22:30 53.2 °F 49.1 °F 29.8 in WNW 2.9 mph 9 mph 86% 0 in 0 W/m2
22:35 53.1 °F 48.9 °F 29.8 in West 8.1 mph 8 mph 86% 0 in 0 W/m2
22:40 53.1 °F 48.9 °F 29.8 in West 11 mph 12 mph 86% 0 in 0 W/m2
22:45 52.9 °F 48.6 °F 29.8 in NW 4 mph 9 mph 85% 0 in 0 W/m2
22:50 52.7 °F 48.4 °F 29.8 in WSW 8.1 mph 15 mph 85% 0 in 0 W/m2
22:55 52.7 °F 48 °F 29.8 in West 8.9 mph 11 mph 84% 0 in 0 W/m2
23:00 52.5 °F 47.5 °F 29.8 in WNW 8.9 mph 16 mph 83% 0 in 0 W/m2
23:05 52.5 °F 47.5 °F 29.8 in WNW 8.9 mph 15 mph 83% 0 in 0 W/m2
23:10 52.3 °F 47.3 °F 29.8 in WNW 17.9 mph 18 mph 83% 0 in 0 W/m2
23:15 52.3 °F 46.9 °F 29.8 in West 8.1 mph 8 mph 82% 0 in 0 W/m2
23:20 52.2 °F 47.1 °F 29.8 in NW 4 mph 18 mph 83% 0 in 0 W/m2
23:25 52 °F 46.9 °F 29.8 in NW 4.9 mph 10 mph 83% 0 in 0 W/m2
23:30 51.8 °F 46.8 °F 29.8 in West 11 mph 11 mph 83% 0 in 0 W/m2
23:35 51.6 °F 46.6 °F 29.8 in West 6 mph 11 mph 83% 0 in 0 W/m2
23:40 51.6 °F 46.6 °F 29.8 in WNW 4 mph 9 mph 83% 0 in 0 W/m2
23:45 51.6 °F 46.6 °F 29.8 in West 6.9 mph 15 mph 83% 0 in 0 W/m2
23:50 51.6 °F 46.6 °F 29.8 in West 4 mph 13 mph 83% 0 in 0 W/m2
23:55 51.4 °F 46.8 °F 29.8 in WSW 6.9 mph 15 mph 84% 0 in 0 W/m2
Juneau County Weather
Compliments of Weather Underground - 4 mb